Time;durP1;ratioP1;P1;durP2;ratioP2;P2;SDS_P1;SDS_P2;PMS_P1;PMS_P2;Temp;Humidity;BMP_temperature;BMP_pressure;BME280_temperature;BME280_humidity;BME280_pressure;Samples;Min_cycle;Max_cycle;Signal;HPM_P1;HPM_P2
2021/06/17 00:03:44;;;;;;;24.87;22.47;;;;;;;20.85;100.00;100914.89;1892193;74;86083;-74
2021/06/17 00:09:09;;;;;;;24.93;22.63;;;;;;;20.77;100.00;100907.36;1949768;73;39452;-71
2021/06/17 00:14:35;;;;;;;27.33;24.63;;;;;;;20.88;100.00;100881.70;1912122;73;39709;-74
2021/06/17 00:20:00;;;;;;;26.37;23.80;;;;;;;20.82;100.00;100889.61;1782507;78;85628;-70
2021/06/17 00:25:24;;;;;;;28.23;25.53;;;;;;;20.44;100.00;100865.95;1946181;73;39580;-70
2021/06/17 00:30:52;;;;;;;27.37;24.90;;;;;;;20.41;100.00;100851.70;1894349;74;86469;-75
2021/06/17 00:36:16;;;;;;;25.63;23.23;;;;;;;20.41;100.00;100845.47;1921957;73;39870;-71
2021/06/17 00:41:43;;;;;;;27.20;24.47;;;;;;;20.17;100.00;100829.91;1910897;73;39748;-70
2021/06/17 00:47:08;;;;;;;28.20;25.47;;;;;;;20.27;100.00;100839.34;1866493;75;86585;-74
2021/06/17 00:52:34;;;;;;;27.53;25.00;;;;;;;20.33;100.00;100852.05;1933475;73;39511;-71
2021/06/17 00:58:00;;;;;;;27.80;25.13;;;;;;;20.42;100.00;100840.66;1773303;79;86509;-71
2021/06/17 01:03:24;;;;;;;32.17;28.93;;;;;;;20.37;100.00;100838.06;1946160;73;39551;-70
2021/06/17 01:08:54;;;;;;;32.60;29.50;;;;;;;20.31;100.00;100841.73;1877099;75;86098;-70
2021/06/17 01:14:21;;;;;;;33.63;30.13;;;;;;;20.15;100.00;100818.14;1921267;73;39708;-73
2021/06/17 01:19:54;;;;;;;33.70;30.17;;;;;;;20.13;100.00;100800.77;1877883;76;86452;-74
2021/06/17 01:25:56;;;;;;;33.77;30.43;;;;;;;20.05;100.00;100798.05;1919283;73;39405;-70
2021/06/17 01:31:24;;;;;;;37.37;33.33;;;;;;;19.93;100.00;100801.09;1936181;72;39606;-70
2021/06/17 01:36:53;;;;;;;39.87;35.77;;;;;;;19.99;100.00;100808.14;1837228;77;86278;-71
2021/06/17 01:42:18;;;;;;;39.47;35.40;;;;;;;20.07;100.00;100818.28;1947336;73;39581;-71
2021/06/17 01:47:45;;;;;;;38.83;34.87;;;;;;;20.17;100.00;100843.19;1877112;75;86460;-70
2021/06/17 01:53:14;;;;;;;38.60;34.70;;;;;;;20.03;100.00;100849.73;1939326;73;39516;-70
2021/06/17 01:58:40;;;;;;;39.87;35.60;;;;;;;20.14;100.00;100846.13;1910692;72;39468;-71
2021/06/17 02:04:07;;;;;;;39.43;35.37;;;;;;;20.08;100.00;100853.16;1798067;78;86559;-74
2021/06/17 02:09:32;;;;;;;41.37;37.00;;;;;;;20.19;100.00;100854.95;1913611;73;39504;-70
2021/06/17 02:14:58;;;;;;;40.93;36.47;;;;;;;20.20;100.00;100856.00;1837899;77;86368;-73
2021/06/17 02:20:24;;;;;;;39.80;35.73;;;;;;;20.14;100.00;100869.28;1946095;73;39447;-70
2021/06/17 02:25:52;;;;;;;40.83;36.43;;;;;;;20.21;100.00;100856.24;1892829;74;86679;-70
2021/06/17 02:31:20;;;;;;;38.73;34.70;;;;;;;20.05;100.00;100837.53;1947646;73;39528;-71
2021/06/17 02:36:46;;;;;;;40.77;36.47;;;;;;;20.18;100.00;100845.67;1877354;75;85645;-70
2021/06/17 02:42:15;;;;;;;40.83;36.60;;;;;;;20.16;100.00;100830.25;1948893;73;39566;-70
2021/06/17 02:47:41;;;;;;;41.07;36.67;;;;;;;20.20;100.00;100823.56;1888346;73;39429;-70
2021/06/17 02:53:07;;;;;;;40.47;36.20;;;;;;;20.08;100.00;100816.50;1881379;75;86440;-71
2021/06/17 02:58:42;;;;;;;41.47;37.10;;;;;;;20.21;100.00;100822.98;1944674;73;39462;-70
2021/06/17 03:07:00;;;;;;;42.93;38.33;;;;;;;20.19;100.00;100820.53;1898837;75;86477;-73
2021/06/17 03:12:29;;;;;;;47.15;42.73;;;;;;;20.13;100.00;100820.50;1929611;73;39472;-74
2021/06/17 03:17:56;;;;;;;40.10;36.07;;;;;;;20.12;100.00;100808.98;1837512;77;86347;-74
2021/06/17 03:23:22;;;;;;;39.40;35.67;;;;;;;20.07;100.00;100799.33;1946702;73;39718;-70
2021/06/17 03:28:50;;;;;;;38.63;34.80;;;;;;;20.08;100.00;100802.98;1877208;75;85613;-70
2021/06/17 03:34:16;;;;;;;37.83;34.10;;;;;;;19.81;100.00;100794.61;1948553;73;39789;-70
2021/06/17 03:39:47;;;;;;;37.97;34.17;;;;;;;19.73;100.00;100799.73;1845783;77;86839;-74
2021/06/17 03:45:16;;;;;;;40.53;36.23;;;;;;;19.77;100.00;100821.81;1942401;72;39747;-70
2021/06/17 03:50:39;;;;;;;41.63;36.23;;;;;;;19.94;100.00;100823.03;1909776;73;39525;-70
2021/06/17 03:56:04;;;;;;;40.67;36.37;;;;;;;19.95;100.00;100813.41;1838368;77;86664;-70
2021/06/17 04:01:31;;;;;;;38.50;34.80;;;;;;;19.93;100.00;100813.78;1909601;73;39509;-74
2021/06/17 04:06:58;;;;;;;39.40;35.40;;;;;;;19.98;100.00;100816.97;1837668;77;85624;-70
2021/06/17 04:12:25;;;;;;;40.17;36.10;;;;;;;19.97;100.00;100823.19;1946126;73;39770;-70
2021/06/17 04:17:54;;;;;;;38.60;34.67;;;;;;;19.94;100.00;100809.77;1869555;77;86226;-70
2021/06/17 04:23:24;;;;;;;36.87;33.27;;;;;;;19.90;100.00;100805.17;1920218;73;40387;-70
2021/06/17 04:28:51;;;;;;;37.50;33.70;;;;;;;19.99;100.00;100809.55;1883026;75;85961;-70
2021/06/17 04:34:16;;;;;;;38.67;34.83;;;;;;;19.92;100.00;100798.62;1948381;73;39786;-73
2021/06/17 04:39:43;;;;;;;36.67;32.80;;;;;;;19.89;100.00;100795.92;1845731;77;86204;-70
2021/06/17 04:45:13;;;;;;;38.83;34.93;;;;;;;19.86;100.00;100804.23;1908544;73;39414;-74
2021/06/17 04:50:35;;;;;;;38.43;34.53;;;;;;;19.80;100.00;100818.33;1913185;73;39501;-74
2021/06/17 04:56:06;;;;;;;41.13;36.77;;;;;;;19.71;100.00;100821.23;1863590;76;85848;-70
2021/06/17 05:01:33;;;;;;;40.80;36.53;;;;;;;19.71;100.00;100826.87;1944672;73;40038;-70
2021/06/17 05:07:10;;;;;;;43.20;38.70;;;;;;;19.75;100.00;100827.82;1832622;78;86723;-73
2021/06/17 05:12:25;;;;;;;43.00;37.93;;;;;;;19.78;100.00;100835.58;1934919;72;39457;-71
2021/06/17 05:17:50;;;;;;;42.87;38.27;;;;;;;19.76;100.00;100842.16;1868854;76;85965;-74
2021/06/17 05:23:16;;;;;;;43.90;39.27;;;;;;;19.70;100.00;100847.77;1948780;73;39603;-70
2021/06/17 05:28:41;;;;;;;46.80;41.83;;;;;;;19.73;100.00;100845.66;1911182;73;39460;-74
2021/06/17 05:34:05;;;;;;;49.37;43.20;;;;;;;19.71;100.00;100836.73;1850938;75;86332;-74
2021/06/17 05:39:29;;;;;;;49.33;42.43;;;;;;;19.74;100.00;100830.98;1945484;73;39577;-70
2021/06/17 05:44:53;;;;;;;46.97;41.83;;;;;;;19.79;100.00;100834.99;1837564;77;86382;-70
2021/06/17 05:50:16;;;;;;;47.57;42.57;;;;;;;19.86;100.00;100841.70;1922034;73;39423;-74
2021/06/17 05:55:41;;;;;;;49.53;42.37;;;;;;;19.96;100.00;100847.49;1908765;73;39950;-74
2021/06/17 06:01:07;;;;;;;50.37;42.80;;;;;;;20.01;100.00;100855.73;1838730;77;86120;-74
2021/06/17 06:06:31;;;;;;;44.10;38.03;;;;;;;19.97;100.00;100856.20;1933312;73;39717;-73
2021/06/17 06:11:55;;;;;;;39.33;34.73;;;;;;;19.99;100.00;100874.40;1882922;75;86507;-70
2021/06/17 06:17:20;;;;;;;30.00;26.83;;;;;;;19.90;100.00;100883.53;1901415;73;39611;-74
2021/06/17 06:22:44;;;;;;;30.63;25.70;;;;;;;19.89;100.00;100885.31;1892244;74;86387;-73
2021/06/17 06:28:09;;;;;;;16.50;14.90;;;;;;;19.57;100.00;100892.56;1908065;73;39771;-71
2021/06/17 06:33:36;;;;;;;13.97;12.17;;;;;;;19.53;100.00;100881.16;1944001;73;39571;-71
2021/06/17 06:39:03;;;;;;;11.97;10.40;;;;;;;19.46;100.00;100883.72;1798958;79;86465;-70
2021/06/17 06:44:26;;;;;;;11.33;10.23;;;;;;;19.51;100.00;100879.25;1917449;73;39448;-71
2021/06/17 06:49:49;;;;;;;12.40;9.90;;;;;;;19.62;100.00;100884.48;1877337;75;86122;-71
2021/06/17 06:55:14;;;;;;;11.33;9.53;;;;;;;19.58;100.00;100891.39;1948841;73;39665;-72
2021/06/17 07:00:43;;;;;;;10.50;9.50;;;;;;;19.62;100.00;100894.34;1943531;73;39704;-73
2021/06/17 07:06:09;;;;;;;10.80;9.27;;;;;;;19.64;100.00;100895.63;1838867;77;85446;-73
2021/06/17 07:11:33;;;;;;;11.40;10.13;;;;;;;19.62;100.00;100892.35;1912838;73;39689;-76
2021/06/17 07:16:58;;;;;;;11.57;10.47;;;;;;;19.72;100.00;100889.13;1851600;75;86862;-76
2021/06/17 07:22:26;;;;;;;10.73;9.63;;;;;;;19.52;100.00;100890.77;1917163;73;46874;-82
2021/06/17 07:27:51;;;;;;;10.67;9.67;;;;;;;19.69;100.00;100894.02;1837116;77;85331;-83
2021/06/17 07:33:17;;;;;;;9.87;8.87;;;;;;;19.81;100.00;100891.86;1947328;73;39508;-75
2021/06/17 07:38:42;;;;;;;8.03;7.23;;;;;;;19.94;100.00;100909.86;1904690;75;86756;-76
2021/06/17 07:44:10;;;;;;;7.53;6.83;;;;;;;19.90;100.00;100924.41;1793706;79;86749;-79
2021/06/17 07:49:33;;;;;;;7.63;6.93;;;;;;;19.89;100.00;100938.87;1917599;73;39607;-76
2021/06/17 07:54:58;;;;;;;9.40;6.47;;;;;;;19.91;100.00;100926.06;1837840;77;86341;-74
2021/06/17 08:00:44;;;;;;;10.20;6.83;;;;;;;20.04;100.00;100928.93;1862473;76;86832;-77
2021/06/17 08:06:08;;;;;;;8.77;7.43;;;;;;;20.09;100.00;100931.53;1839105;77;86558;-74
2021/06/17 08:11:35;;;;;;;7.57;6.60;;;;;;;20.06;100.00;100931.66;1944195;73;39629;-73
2021/06/17 08:17:00;;;;;;;7.37;6.67;;;;;;;20.08;100.00;100938.34;1947386;71;85597;-74
2021/06/17 08:22:27;;;;;;;7.43;6.73;;;;;;;20.20;100.00;100939.79;1946182;73;39695;-74
2021/06/17 08:27:52;;;;;;;7.43;6.40;;;;;;;20.31;100.00;100963.62;1832399;78;86452;-73
2021/06/17 08:33:17;;;;;;;8.10;6.47;;;;;;;20.36;100.00;100955.77;1947610;73;39529;-75
2021/06/17 08:38:42;;;;;;;6.13;5.60;;;;;;;20.24;100.00;100954.84;1904842;75;85641;-74
2021/06/17 08:44:07;;;;;;;7.13;6.33;;;;;;;20.40;100.00;100948.25;1782502;78;85614;-76
2021/06/17 08:49:30;;;;;;;6.27;5.67;;;;;;;20.50;100.00;100958.25;1930200;72;40261;-73
2021/06/17 08:54:59;;;;;;;6.23;5.70;;;;;;;20.38;100.00;100942.70;1837754;77;86551;-76
2021/06/17 09:00:39;;;;;;;7.23;5.87;;;;;;;20.39;100.00;100942.95;1946396;73;39469;-75
2021/06/17 09:06:08;;;;;;;7.93;7.23;;;;;;;20.25;100.00;100948.86;1896150;75;86528;-74
2021/06/17 09:11:33;;;;;;;11.50;10.33;;;;;;;20.30;100.00;100952.09;1944639;73;39556;-77
2021/06/17 09:17:12;;;;;;;14.53;13.20;;;;;;;20.23;100.00;100966.74;1939574;73;39623;-78
2021/06/17 09:22:39;;;;;;;15.60;14.10;;;;;;;20.23;100.00;100968.73;1925500;73;39589;-76
2021/06/17 09:28:06;;;;;;;15.60;14.20;;;;;;;20.29;100.00;100964.50;1863375;76;86688;-74
2021/06/17 09:33:34;;;;;;;15.27;13.87;;;;;;;20.22;100.00;100969.31;1944777;73;39460;-76
2021/06/17 09:39:02;;;;;;;14.33;12.93;;;;;;;20.12;100.00;100967.50;1777578;80;86360;-79
2021/06/17 09:44:37;;;;;;;14.23;12.73;;;;;;;20.22;100.00;100962.84;1944545;73;39472;-76
2021/06/17 09:50:06;;;;;;;13.00;11.83;;;;;;;20.28;100.00;100974.16;1947506;71;86577;-76
2021/06/17 09:55:42;;;;;;;12.80;11.60;;;;;;;20.54;100.00;100985.20;1913970;73;40341;-78
2021/06/17 10:01:14;;;;;;;12.27;11.07;;;;;;;20.59;100.00;100993.42;1838666;77;86417;-73
2021/06/17 10:09:25;;;;;;;10.37;9.40;;;;;;;20.53;100.00;100984.38;1999660;69;39556;-75
2021/06/17 10:11:57;;;;;;;10.63;9.73;;;;;;;20.52;100.00;100996.00;1936371;73;936539;-82
2021/06/17 10:14:28;;;;;;;10.30;9.35;;;;;;;20.56;100.00;100996.95;1859609;75;938760;-86
2021/06/17 10:17:00;;;;;;;9.93;9.10;;;;;;;20.50;100.00;100992.69;1885779;75;939039;-76
2021/06/17 10:19:32;;;;;;;12.33;11.27;;;;;;;20.51;100.00;100991.52;1880347;75;936738;-85
2021/06/17 10:22:03;;;;;;;10.60;9.80;;;;;;;20.63;100.00;100988.73;1850631;76;939173;-76
2021/06/17 10:27:34;;;;;;;10.87;9.87;;;;;;;20.83;100.00;100978.79;1944823;72;39394;-83
2021/06/17 10:33:01;;;;;;;10.90;9.90;;;;;;;21.02;100.00;100981.02;1947841;71;86331;-75
2021/06/17 10:38:25;;;;;;;11.10;10.07;;;;;;;21.27;100.00;101001.06;1945870;73;39471;-81
2021/06/17 10:43:49;;;;;;;10.00;9.20;;;;;;;21.25;100.00;101009.66;1877081;75;86802;-73
2021/06/17 10:49:36;;;;;;;11.70;10.60;;;;;;;21.29;100.00;101004.95;1947452;73;39474;-74
2021/06/17 10:55:23;;;;;;;11.07;9.97;;;;;;;21.41;100.00;101019.66;1924447;73;39624;-73
2021/06/17 11:00:49;;;;;;;11.03;10.03;;;;;;;21.68;100.00;101016.94;1877202;75;85581;-73
2021/06/17 11:07:06;;;;;;;10.50;9.60;;;;;;;21.62;100.00;101029.66;1944951;73;39676;-74
2021/06/17 11:13:02;;;;;;;12.50;11.30;;;;;;;21.69;100.00;101040.38;1860417;76;86438;-74
2021/06/17 11:19:00;;;;;;;11.27;10.37;;;;;;;21.68;100.00;101052.86;1891677;74;86660;-74
2021/06/17 11:24:49;;;;;;;11.20;10.20;;;;;;;21.60;100.00;101053.23;1891879;75;86686;-73
2021/06/17 11:31:00;;;;;;;10.90;9.90;;;;;;;21.70;100.00;101058.97;1902288;73;39651;-73
2021/06/17 11:36:53;;;;;;;11.68;10.58;;;;;;;21.88;100.00;101056.12;1877242;75;85898;-79
2021/06/17 11:42:20;;;;;;;12.73;11.68;;;;;;;21.99;100.00;101070.02;1936998;72;39591;-80
2021/06/17 11:47:52;;;;;;;10.82;10.03;;;;;;;22.00;100.00;101066.02;1837212;77;85820;-74
2021/06/17 11:53:18;;;;;;;10.70;9.80;;;;;;;22.19;100.00;101064.80;1947349;73;39451;-76
2021/06/17 11:58:45;;;;;;;10.88;9.98;;;;;;;22.20;100.00;101058.56;1882158;75;86481;-76
2021/06/17 12:04:12;;;;;;;9.93;9.10;;;;;;;22.40;100.00;101053.28;1949204;73;39575;-76
2021/06/17 12:09:36;;;;;;;9.17;8.47;;;;;;;22.38;100.00;101059.89;1943659;73;39493;-74
2021/06/17 12:15:19;;;;;;;8.40;7.70;;;;;;;22.20;100.00;101073.53;1923394;73;39559;-72
2021/06/17 12:20:49;;;;;;;8.40;7.70;;;;;;;22.25;100.00;101080.92;1844359;76;86086;-75
2021/06/17 12:26:15;;;;;;;10.32;9.35;;;;;;;22.14;100.00;101076.38;1923095;73;39764;-75
2021/06/17 12:31:49;;;;;;;9.93;9.03;;;;;;;22.04;100.00;101081.09;1877499;76;86221;-74
2021/06/17 12:37:14;;;;;;;10.53;9.53;;;;;;;21.97;100.00;101089.38;1905691;73;39409;-74
2021/06/17 12:42:40;;;;;;;9.63;8.80;;;;;;;22.09;100.00;101094.17;1943038;73;39635;-76
2021/06/17 12:48:19;;;;;;;11.22;9.78;;;;;;;22.21;100.00;101099.80;1948869;73;39421;-75
2021/06/17 12:53:49;;;;;;;9.50;8.60;;;;;;;22.31;100.00;101080.91;1848353;77;86561;-72
2021/06/17 12:59:13;;;;;;;7.70;7.00;;;;;;;22.52;100.00;101081.54;1939000;72;39603;-74
2021/06/17 13:04:43;;;;;;;6.37;5.80;;;;;;;22.81;100.00;101082.36;1904508;75;85520;-77
2021/06/17 13:10:17;;;;;;;7.03;6.50;;;;;;;22.80;100.00;101080.74;1923141;73;39611;-72
2021/06/17 13:15:46;;;;;;;7.10;6.50;;;;;;;22.87;100.00;101082.34;1877318;75;86479;-72
2021/06/17 13:21:14;;;;;;;7.62;6.95;;;;;;;23.20;100.00;101070.67;1939216;73;39599;-73
2021/06/17 13:26:40;;;;;;;7.15;6.50;;;;;;;23.05;100.00;101080.23;1911131;73;39611;-73
2021/06/17 13:32:08;;;;;;;6.12;5.62;;;;;;;22.71;100.00;101084.33;1838450;77;86743;-71
2021/06/17 13:37:35;;;;;;;6.10;5.58;;;;;;;22.55;100.00;101096.38;1911571;73;39825;-76
2021/06/17 13:43:03;;;;;;;6.37;5.87;;;;;;;22.46;100.00;101099.95;1884126;74;86333;-74
2021/06/17 13:48:33;;;;;;;5.80;5.40;;;;;;;22.32;100.00;101102.97;1916631;73;39566;-71
2021/06/17 13:53:55;;;;;;;6.47;5.72;;;;;;;22.29;100.00;101108.77;1829185;78;86603;-71
2021/06/17 13:59:20;;;;;;;6.30;5.70;;;;;;;22.24;100.00;101107.01;1901718;73;39804;-73
2021/06/17 14:04:52;;;;;;;6.83;6.22;;;;;;;22.34;100.00;101102.00;1893153;75;86495;-74
2021/06/17 14:10:20;;;;;;;7.42;6.67;;;;;;;22.62;100.00;101103.69;1927771;73;39445;-71
2021/06/17 14:15:44;;;;;;;7.17;6.57;;;;;;;22.74;100.00;101109.09;1876910;75;86197;-69
2021/06/17 14:21:09;;;;;;;8.08;7.37;;;;;;;22.76;100.00;101114.64;1878626;75;86223;-71
2021/06/17 14:26:42;;;;;;;7.30;6.70;;;;;;;22.65;100.00;101112.04;1932532;72;39814;-71
2021/06/17 14:32:02;;;;;;;8.30;6.80;;;;;;;22.55;100.00;101119.03;1920693;73;86372;-74
2021/06/17 14:37:27;;;;;;;7.53;6.80;;;;;;;22.55;100.00;101120.45;1931607;72;39649;-74
2021/06/17 14:42:52;;;;;;;7.25;6.65;;;;;;;22.54;100.00;101131.56;1832250;78;86087;-75
2021/06/17 14:48:17;;;;;;;7.92;7.22;;;;;;;22.51;100.00;101142.17;1948135;72;39943;-72
2021/06/17 14:53:43;;;;;;;7.80;7.12;;;;;;;22.58;100.00;101145.83;1856052;76;86309;-76
2021/06/17 14:59:08;;;;;;;8.38;7.47;;;;;;;22.87;100.00;101144.66;1899098;75;86234;-76
2021/06/17 15:04:33;;;;;;;7.80;7.12;;;;;;;22.78;100.00;101146.23;1944057;73;39624;-72
2021/06/17 15:10:01;;;;;;;7.40;6.55;;;;;;;22.78;100.00;101150.48;1825128;77;86758;-74
2021/06/17 15:15:26;;;;;;;6.28;5.08;;;;;;;22.47;100.00;101153.98;1918739;73;39545;-74
2021/06/17 15:20:50;;;;;;;6.30;5.87;;;;;;;22.48;100.00;101131.57;1902330;74;86728;-74
2021/06/17 15:26:17;;;;;;;5.12;4.72;;;;;;;22.68;100.00;101156.63;1923159;73;39500;-71
2021/06/17 15:31:41;;;;;;;5.65;5.25;;;;;;;22.51;100.00;101155.50;1910716;73;39610;-75
2021/06/17 15:37:25;;;;;;;5.85;5.45;;;;;;;22.42;100.00;101152.81;1840761;76;86460;-75
2021/06/17 15:42:50;;;;;;;6.50;5.90;;;;;;;22.43;100.00;101150.22;1876854;75;86629;-74
2021/06/17 15:48:15;;;;;;;6.50;5.90;;;;;;;22.42;100.00;101157.67;1922959;73;39821;-72
2021/06/17 15:53:48;;;;;;;6.30;5.70;;;;;;;22.39;100.00;101168.28;1876961;75;86543;-71
2021/06/17 15:59:12;;;;;;;5.87;5.42;;;;;;;22.23;100.00;101157.70;1906362;73;40248;-74
2021/06/17 16:04:37;;;;;;;6.45;5.90;;;;;;;22.40;100.00;101155.78;1943435;73;39394;-76
2021/06/17 16:10:02;;;;;;;5.45;4.97;;;;;;;22.21;100.00;101169.13;1874743;75;86542;-71
2021/06/17 16:15:27;;;;;;;6.20;5.60;;;;;;;22.01;100.00;101163.86;1945553;73;39823;-75
2021/06/17 16:20:52;;;;;;;6.12;5.58;;;;;;;22.03;100.00;101184.15;1869339;76;86580;-73
2021/06/17 16:26:17;;;;;;;5.95;5.45;;;;;;;22.07;100.00;101190.75;1921612;73;39852;-73
2021/06/17 16:31:42;;;;;;;7.28;6.58;;;;;;;22.12;100.00;101186.86;1876947;74;86542;-72
2021/06/17 16:37:10;;;;;;;6.17;5.67;;;;;;;22.03;100.00;101194.05;1838683;77;86149;-71
2021/06/17 16:42:34;;;;;;;6.12;5.62;;;;;;;21.86;100.00;101190.02;1927425;73;40252;-70
2021/06/17 16:47:58;;;;;;;6.65;5.95;;;;;;;21.78;100.00;101205.89;1837631;77;86432;-70
2021/06/17 16:53:23;;;;;;;6.60;5.97;;;;;;;21.72;100.00;101210.15;1917976;73;39568;-72
2021/06/17 16:58:53;;;;;;;6.20;5.70;;;;;;;21.75;100.00;101200.95;1877175;74;86535;-73
2021/06/17 17:04:18;;;;;;;8.15;7.35;;;;;;;21.69;100.00;101198.11;1946884;73;39552;-73
2021/06/17 17:09:43;;;;;;;7.10;6.50;;;;;;;21.71;100.00;101204.25;1876699;75;86801;-79
2021/06/17 17:15:13;;;;;;;7.60;7.00;;;;;;;21.80;100.00;101214.04;1868602;75;86210;-77
2021/06/17 17:20:37;;;;;;;8.00;7.40;;;;;;;21.82;100.00;101210.28;1917466;73;39413;-77
2021/06/17 17:26:02;;;;;;;9.38;8.48;;;;;;;21.66;100.00;101210.71;1825340;78;86772;-75
2021/06/17 17:31:26;;;;;;;9.83;9.03;;;;;;;21.25;100.00;101215.34;1897933;73;39712;-76
2021/06/17 17:36:51;;;;;;;10.98;10.10;;;;;;;21.15;100.00;101219.19;1882538;75;86700;-70
2021/06/17 17:42:16;;;;;;;11.75;10.70;;;;;;;21.05;100.00;101223.23;1921642;73;39590;-76
2021/06/17 17:47:41;;;;;;;11.63;10.53;;;;;;;21.02;100.00;101232.98;1911240;73;39562;-76
2021/06/17 17:53:07;;;;;;;11.70;10.70;;;;;;;21.07;100.00;101230.78;1894983;74;86584;-70
2021/06/17 17:58:31;;;;;;;11.70;10.70;;;;;;;21.09;100.00;101238.92;1929603;72;39702;-76
2021/06/17 18:03:56;;;;;;;11.70;10.70;;;;;;;20.96;100.00;101247.09;1837769;77;86539;-76
2021/06/17 18:09:20;;;;;;;12.30;11.10;;;;;;;21.03;100.00;101248.77;1902543;73;39515;-76
2021/06/17 18:14:49;;;;;;;13.70;12.60;;;;;;;21.04;100.00;101253.25;1891964;75;85439;-71
2021/06/17 18:20:17;;;;;;;13.78;12.37;;;;;;;20.90;100.00;101266.24;1947784;73;39657;-77
2021/06/17 18:25:41;;;;;;;14.93;13.62;;;;;;;20.81;100.00;101280.42;1942568;73;39832;-82
2021/06/17 18:31:05;;;;;;;14.90;13.60;;;;;;;20.75;100.00;101277.55;1863104;76;86424;-71
2021/06/17 18:36:30;;;;;;;18.00;16.40;;;;;;;20.76;100.00;101288.27;1945195;73;39887;-76
2021/06/17 18:41:54;;;;;;;17.43;15.83;;;;;;;20.73;100.00;101299.67;1837034;77;86518;-81
2021/06/17 18:47:22;;;;;;;19.37;17.53;;;;;;;20.77;100.00;101306.28;1919133;73;39499;-76
2021/06/17 18:52:47;;;;;;;16.17;14.77;;;;;;;20.65;100.00;101297.73;1882154;75;86500;-74
2021/06/17 18:58:10;;;;;;;12.20;11.10;;;;;;;20.59;100.00;101301.09;1949320;73;39691;-76
2021/06/17 19:03:35;;;;;;;10.85;9.90;;;;;;;20.58;100.00;101298.84;1927784;72;39578;-75
2021/06/17 19:08:59;;;;;;;10.33;9.33;;;;;;;20.54;100.00;101301.31;1779786;79;86482;-79
2021/06/17 19:14:29;;;;;;;9.07;8.27;;;;;;;20.54;100.00;101309.78;1942203;73;39638;-75
2021/06/17 19:19:56;;;;;;;8.33;7.63;;;;;;;20.57;100.00;101318.39;1869173;76;85120;-80
2021/06/17 19:25:25;;;;;;;7.00;6.30;;;;;;;20.54;100.00;101317.63;1918259;73;39609;-71
2021/06/17 19:30:50;;;;;;;6.90;6.30;;;;;;;20.54;100.00;101310.58;1831821;78;86813;-68
2021/06/17 19:36:14;;;;;;;7.40;6.80;;;;;;;20.60;100.00;101311.22;1938061;73;39810;-70
2021/06/17 19:41:40;;;;;;;8.40;7.60;;;;;;;20.50;100.00;101306.78;1938138;73;39620;-77
2021/06/17 19:49:52;;;;;;;9.47;8.77;;;;;;;20.35;100.00;101317.26;1898827;75;86426;-77
2021/06/17 19:52:27;;;;;;;9.25;8.55;;;;;;;20.29;100.00;101334.09;1884282;74;934540;-76
2021/06/17 19:57:49;;;;;;;8.87;8.07;;;;;;;20.20;100.00;101344.00;1877245;75;86655;-76
2021/06/17 20:03:17;;;;;;;8.70;8.00;;;;;;;20.14;100.00;101345.37;1947520;73;39744;-79
2021/06/17 20:08:43;;;;;;;7.57;6.97;;;;;;;20.01;100.00;101353.46;1904330;75;86782;-71
2021/06/17 20:14:07;;;;;;;6.43;5.93;;;;;;;19.94;100.00;101361.59;1835379;76;86884;-79
2021/06/17 20:19:33;;;;;;;6.63;6.13;;;;;;;19.92;100.00;101366.17;1916197;72;39660;-80
2021/06/17 20:24:59;;;;;;;6.67;6.07;;;;;;;19.89;100.00;101367.44;1868339;76;86139;-71
2021/06/17 20:30:43;;;;;;;6.97;6.43;;;;;;;19.85;100.00;101379.94;1919977;73;86662;-71
2021/06/17 20:36:07;;;;;;;6.80;6.20;;;;;;;19.85;100.00;101382.76;1869824;76;86303;-77
2021/06/17 20:41:32;;;;;;;7.43;6.83;;;;;;;19.82;100.00;101382.60;1944376;73;39632;-79
2021/06/17 20:46:57;;;;;;;7.67;6.97;;;;;;;19.88;100.00;101401.84;1856076;75;86171;-69
2021/06/17 20:52:23;;;;;;;8.17;7.57;;;;;;;19.72;100.00;101410.59;1946808;73;39791;-74
2021/06/17 20:57:46;;;;;;;8.97;8.27;;;;;;;19.68;100.00;101423.66;1877421;75;86425;-76
2021/06/17 21:03:12;;;;;;;8.97;8.27;;;;;;;19.64;100.00;101428.91;1925050;73;39658;-78
2021/06/17 21:08:36;;;;;;;9.10;8.40;;;;;;;19.62;100.00;101439.09;1943513;73;39708;-80
2021/06/17 21:14:01;;;;;;;9.50;8.70;;;;;;;19.64;100.00;101440.98;1782101;79;85384;-82
2021/06/17 21:19:25;;;;;;;8.67;7.97;;;;;;;19.57;100.00;101449.70;1946366;73;39445;-77
2021/06/17 21:24:50;;;;;;;7.47;6.80;;;;;;;19.52;100.00;101445.89;1892350;74;86469;-76
2021/06/17 21:30:16;;;;;;;5.40;5.00;;;;;;;19.36;100.00;101441.88;1948645;73;39675;-76
2021/06/17 21:35:41;;;;;;;5.40;4.97;;;;;;;19.29;100.00;101450.00;1897401;73;39695;-78
2021/06/17 21:41:05;;;;;;;5.80;5.23;;;;;;;19.15;100.00;101453.52;1788537;78;85480;-77
2021/06/17 21:49:16;;;;;;;5.73;5.23;;;;;;;19.12;100.00;101454.77;2004852;69;39560;-77
2021/06/17 21:51:46;;;;;;;7.40;6.10;;;;;;;18.94;100.00;101446.84;1936738;73;934596;-76
2021/06/17 21:57:11;;;;;;;7.20;6.57;;;;;;;19.00;100.00;101440.72;1930923;72;39495;-77
2021/06/17 22:05:27;;;;;;;8.37;7.67;;;;;;;18.95;100.00;101438.66;2000189;69;39557;-80
2021/06/17 22:07:58;;;;;;;8.70;7.97;;;;;;;18.91;100.00;101446.11;1935918;73;934434;-72
2021/06/17 22:10:28;;;;;;;10.23;8.03;;;;;;;18.88;100.00;101447.57;1923289;73;935891;-71
2021/06/17 22:12:58;;;;;;;10.03;9.03;;;;;;;18.87;100.00;101454.34;1935938;73;938618;-78
2021/06/17 22:15:28;;;;;;;9.10;8.30;;;;;;;18.94;100.00;101456.70;1923250;72;938487;-79
2021/06/17 22:17:59;;;;;;;10.30;9.30;;;;;;;18.84;100.00;101449.95;1871231;75;936513;-72
2021/06/17 22:20:29;;;;;;;9.33;8.57;;;;;;;18.85;100.00;101449.64;1867711;75;938742;-71
2021/06/17 22:22:59;;;;;;;9.53;8.67;;;;;;;18.78;100.00;101449.87;1894969;75;936537;-78
2021/06/17 22:28:26;;;;;;;9.63;8.83;;;;;;;18.80;100.00;101436.28;1934995;72;39435;-75
2021/06/17 22:33:50;;;;;;;11.90;10.77;;;;;;;18.79;100.00;101426.17;1867956;75;86256;-76
2021/06/17 22:39:15;;;;;;;11.87;10.67;;;;;;;18.85;100.00;101434.73;1948063;73;39645;-72
2021/06/17 22:44:40;;;;;;;10.47;9.53;;;;;;;18.77;100.00;101429.91;1924640;72;39516;-71
2021/06/17 22:50:04;;;;;;;11.93;10.83;;;;;;;18.79;100.00;101427.00;1837888;77;85546;-69
2021/06/17 22:55:28;;;;;;;10.73;9.80;;;;;;;18.81;100.00;101408.39;1914945;73;40417;-70
2021/06/17 23:00:52;;;;;;;12.33;11.13;;;;;;;18.80;100.00;101412.36;1837110;77;86430;-71
2021/06/17 23:06:17;;;;;;;13.33;12.13;;;;;;;18.79;100.00;101414.91;1947811;73;39549;-78
2021/06/17 23:11:47;;;;;;;12.90;11.70;;;;;;;18.80;100.00;101422.20;1882292;75;86743;-76
2021/06/17 23:17:12;;;;;;;12.17;11.00;;;;;;;18.70;100.00;101413.48;1906776;73;39551;-75
2021/06/17 23:22:36;;;;;;;12.60;11.40;;;;;;;18.74;100.00;101419.31;1943924;72;39447;-75
2021/06/17 23:28:03;;;;;;;12.30;11.20;;;;;;;18.73;100.00;101412.02;1947337;71;85417;-75
2021/06/17 23:33:28;;;;;;;10.27;9.30;;;;;;;18.57;100.00;101411.03;1918849;73;39583;-76
2021/06/17 23:38:52;;;;;;;11.40;10.20;;;;;;;18.62;100.00;101407.25;1868953;75;85494;-75
2021/06/17 23:44:16;;;;;;;12.70;11.60;;;;;;;18.67;100.00;101401.47;1844817;75;39784;-79
2021/06/17 23:49:42;;;;;;;13.83;12.53;;;;;;;18.61;100.00;101404.20;1942974;73;39479;-75
2021/06/17 23:55:09;;;;;;;12.70;11.50;;;;;;;18.68;100.00;101410.18;1912670;74;86277;-76
